sensor_id;sensor_type;location;lat;lon;timestamp;P1;durP1;ratioP1;P2;durP2;ratioP2
74793;SDS011;63320;50.768;6.724;2023-04-03T00:01:48;8.40;;;2.30;;
74793;SDS011;63320;50.768;6.724;2023-04-03T00:04:13;5.85;;;2.10;;
74793;SDS011;63320;50.768;6.724;2023-04-03T00:06:39;7.00;;;2.03;;
74793;SDS011;63320;50.768;6.724;2023-04-03T00:09:05;7.40;;;1.77;;
74793;SDS011;63320;50.768;6.724;2023-04-03T00:11:31;3.67;;;1.58;;
74793;SDS011;63320;50.768;6.724;2023-04-03T00:13:56;4.47;;;1.83;;
74793;SDS011;63320;50.768;6.724;2023-04-03T00:16:21;4.18;;;1.65;;
74793;SDS011;63320;50.768;6.724;2023-04-03T00:18:47;6.82;;;2.13;;
74793;SDS011;63320;50.768;6.724;2023-04-03T00:21:12;5.25;;;1.90;;
74793;SDS011;63320;50.768;6.724;2023-04-03T00:23:38;7.28;;;2.10;;
74793;SDS011;63320;50.768;6.724;2023-04-03T00:26:05;4.28;;;1.52;;
74793;SDS011;63320;50.768;6.724;2023-04-03T00:28:30;5.70;;;2.08;;
74793;SDS011;63320;50.768;6.724;2023-04-03T00:30:56;9.93;;;2.35;;
74793;SDS011;63320;50.768;6.724;2023-04-03T00:33:22;6.03;;;1.92;;
74793;SDS011;63320;50.768;6.724;2023-04-03T00:35:47;6.78;;;2.08;;
74793;SDS011;63320;50.768;6.724;2023-04-03T00:38:12;5.05;;;2.00;;
74793;SDS011;63320;50.768;6.724;2023-04-03T00:40:39;6.88;;;2.10;;
74793;SDS011;63320;50.768;6.724;2023-04-03T00:43:10;5.93;;;2.15;;
74793;SDS011;63320;50.768;6.724;2023-04-03T00:45:38;7.93;;;2.20;;
74793;SDS011;63320;50.768;6.724;2023-04-03T00:48:05;7.55;;;2.55;;
74793;SDS011;63320;50.768;6.724;2023-04-03T00:50:33;4.70;;;2.10;;
74793;SDS011;63320;50.768;6.724;2023-04-03T00:53:00;5.10;;;2.40;;
74793;SDS011;63320;50.768;6.724;2023-04-03T00:55:26;5.95;;;2.10;;
74793;SDS011;63320;50.768;6.724;2023-04-03T00:57:52;4.70;;;1.80;;
74793;SDS011;63320;50.768;6.724;2023-04-03T01:00:21;6.10;;;2.00;;
74793;SDS011;63320;50.768;6.724;2023-04-03T01:02:48;5.75;;;1.98;;
74793;SDS011;63320;50.768;6.724;2023-04-03T01:05:13;6.05;;;2.55;;
74793;SDS011;63320;50.768;6.724;2023-04-03T01:07:41;3.75;;;1.67;;
74793;SDS011;63320;50.768;6.724;2023-04-03T01:10:08;6.93;;;1.90;;
74793;SDS011;63320;50.768;6.724;2023-04-03T01:12:36;6.55;;;2.15;;
74793;SDS011;63320;50.768;6.724;2023-04-03T01:15:04;5.38;;;1.90;;
74793;SDS011;63320;50.768;6.724;2023-04-03T01:17:33;4.85;;;1.70;;
74793;SDS011;63320;50.768;6.724;2023-04-03T01:23:01;7.25;;;1.80;;
74793;SDS011;63320;50.768;6.724;2023-04-03T01:25:39;4.47;;;1.60;;
74793;SDS011;63320;50.768;6.724;2023-04-03T01:28:06;6.78;;;1.67;;
74793;SDS011;63320;50.768;6.724;2023-04-03T01:30:34;4.55;;;1.58;;
74793;SDS011;63320;50.768;6.724;2023-04-03T01:33:06;6.82;;;1.67;;
74793;SDS011;63320;50.768;6.724;2023-04-03T01:35:31;4.80;;;1.77;;
74793;SDS011;63320;50.768;6.724;2023-04-03T01:37:57;5.15;;;1.60;;
74793;SDS011;63320;50.768;6.724;2023-04-03T01:40:22;8.10;;;2.05;;
74793;SDS011;63320;50.768;6.724;2023-04-03T01:42:47;6.72;;;1.55;;
74793;SDS011;63320;50.768;6.724;2023-04-03T01:45:13;4.82;;;1.45;;
74793;SDS011;63320;50.768;6.724;2023-04-03T01:47:38;4.00;;;1.58;;
74793;SDS011;63320;50.768;6.724;2023-04-03T01:50:05;4.00;;;1.63;;
74793;SDS011;63320;50.768;6.724;2023-04-03T01:52:31;6.32;;;2.20;;
74793;SDS011;63320;50.768;6.724;2023-04-03T01:54:56;4.82;;;1.63;;
74793;SDS011;63320;50.768;6.724;2023-04-03T01:57:21;4.65;;;1.80;;
74793;SDS011;63320;50.768;6.724;2023-04-03T01:59:46;3.85;;;1.60;;
74793;SDS011;63320;50.768;6.724;2023-04-03T02:02:12;4.13;;;1.70;;
74793;SDS011;63320;50.768;6.724;2023-04-03T02:04:37;3.97;;;1.40;;
74793;SDS011;63320;50.768;6.724;2023-04-03T02:07:04;7.35;;;1.95;;
74793;SDS011;63320;50.768;6.724;2023-04-03T02:09:29;5.30;;;1.90;;
74793;SDS011;63320;50.768;6.724;2023-04-03T02:11:54;5.47;;;1.90;;
74793;SDS011;63320;50.768;6.724;2023-04-03T02:14:20;6.80;;;1.98;;
74793;SDS011;63320;50.768;6.724;2023-04-03T02:16:45;3.78;;;1.95;;
74793;SDS011;63320;50.768;6.724;2023-04-03T02:19:10;4.68;;;2.00;;
74793;SDS011;63320;50.768;6.724;2023-04-03T02:21:36;5.20;;;2.03;;
74793;SDS011;63320;50.768;6.724;2023-04-03T02:24:02;5.75;;;1.90;;
74793;SDS011;63320;50.768;6.724;2023-04-03T02:26:28;6.75;;;2.10;;
74793;SDS011;63320;50.768;6.724;2023-04-03T02:28:53;4.50;;;1.75;;
74793;SDS011;63320;50.768;6.724;2023-04-03T02:31:19;5.90;;;2.38;;
74793;SDS011;63320;50.768;6.724;2023-04-03T02:33:44;4.88;;;1.92;;
74793;SDS011;63320;50.768;6.724;2023-04-03T02:36:09;7.95;;;2.00;;
74793;SDS011;63320;50.768;6.724;2023-04-03T02:38:35;6.72;;;2.15;;
74793;SDS011;63320;50.768;6.724;2023-04-03T02:41:03;6.65;;;2.40;;
74793;SDS011;63320;50.768;6.724;2023-04-03T02:43:30;5.63;;;2.13;;
74793;SDS011;63320;50.768;6.724;2023-04-03T02:45:55;5.65;;;2.22;;
74793;SDS011;63320;50.768;6.724;2023-04-03T02:48:21;5.68;;;2.28;;
74793;SDS011;63320;50.768;6.724;2023-04-03T02:50:46;9.77;;;2.50;;
74793;SDS011;63320;50.768;6.724;2023-04-03T02:53:11;5.07;;;2.25;;
74793;SDS011;63320;50.768;6.724;2023-04-03T02:55:37;6.60;;;2.20;;
74793;SDS011;63320;50.768;6.724;2023-04-03T02:58:03;7.80;;;2.00;;
74793;SDS011;63320;50.768;6.724;2023-04-03T03:00:29;7.38;;;2.35;;
74793;SDS011;63320;50.768;6.724;2023-04-03T03:02:54;8.38;;;2.35;;
74793;SDS011;63320;50.768;6.724;2023-04-03T03:05:19;7.38;;;2.80;;
74793;SDS011;63320;50.768;6.724;2023-04-03T03:07:45;7.40;;;3.22;;
74793;SDS011;63320;50.768;6.724;2023-04-03T03:10:10;6.35;;;2.80;;
74793;SDS011;63320;50.768;6.724;2023-04-03T03:12:36;5.68;;;2.60;;
74793;SDS011;63320;50.768;6.724;2023-04-03T03:15:02;7.38;;;2.58;;
74793;SDS011;63320;50.768;6.724;2023-04-03T03:17:28;7.22;;;2.60;;
74793;SDS011;63320;50.768;6.724;2023-04-03T03:19:53;6.20;;;3.00;;
74793;SDS011;63320;50.768;6.724;2023-04-03T03:22:19;7.28;;;2.45;;
74793;SDS011;63320;50.768;6.724;2023-04-03T03:24:44;6.38;;;2.72;;
74793;SDS011;63320;50.768;6.724;2023-04-03T03:27:09;6.50;;;2.67;;
74793;SDS011;63320;50.768;6.724;2023-04-03T03:29:35;6.00;;;2.65;;
74793;SDS011;63320;50.768;6.724;2023-04-03T03:32:02;6.47;;;2.72;;
74793;SDS011;63320;50.768;6.724;2023-04-03T03:34:27;6.10;;;2.78;;
74793;SDS011;63320;50.768;6.724;2023-04-03T03:36:52;5.65;;;2.50;;
74793;SDS011;63320;50.768;6.724;2023-04-03T03:39:18;7.88;;;2.60;;
74793;SDS011;63320;50.768;6.724;2023-04-03T03:41:43;6.95;;;2.88;;
74793;SDS011;63320;50.768;6.724;2023-04-03T03:44:08;5.90;;;2.90;;
74793;SDS011;63320;50.768;6.724;2023-04-03T03:46:34;8.00;;;3.20;;
74793;SDS011;63320;50.768;6.724;2023-04-03T03:49:00;6.03;;;3.00;;
74793;SDS011;63320;50.768;6.724;2023-04-03T03:51:26;9.15;;;3.30;;
74793;SDS011;63320;50.768;6.724;2023-04-03T03:53:51;7.93;;;3.33;;
74793;SDS011;63320;50.768;6.724;2023-04-03T03:56:16;7.90;;;4.18;;
74793;SDS011;63320;50.768;6.724;2023-04-03T03:58:42;8.55;;;4.80;;
74793;SDS011;63320;50.768;6.724;2023-04-03T04:01:07;7.70;;;4.30;;
74793;SDS011;63320;50.768;6.724;2023-04-03T04:03:32;7.72;;;5.00;;
74793;SDS011;63320;50.768;6.724;2023-04-03T04:05:59;18.33;;;9.45;;
74793;SDS011;63320;50.768;6.724;2023-04-03T04:08:25;9.95;;;6.22;;
74793;SDS011;63320;50.768;6.724;2023-04-03T04:10:50;6.45;;;4.07;;
74793;SDS011;63320;50.768;6.724;2023-04-03T04:13:15;8.18;;;4.00;;
74793;SDS011;63320;50.768;6.724;2023-04-03T04:15:41;8.18;;;3.65;;
74793;SDS011;63320;50.768;6.724;2023-04-03T04:18:07;7.18;;;4.00;;
74793;SDS011;63320;50.768;6.724;2023-04-03T04:20:32;8.93;;;4.22;;
74793;SDS011;63320;50.768;6.724;2023-04-03T04:22:59;15.10;;;9.10;;
74793;SDS011;63320;50.768;6.724;2023-04-03T04:25:24;9.68;;;4.82;;
74793;SDS011;63320;50.768;6.724;2023-04-03T04:27:49;10.95;;;5.00;;
74793;SDS011;63320;50.768;6.724;2023-04-03T04:30:15;14.75;;;6.63;;
74793;SDS011;63320;50.768;6.724;2023-04-03T04:32:40;12.18;;;5.75;;
74793;SDS011;63320;50.768;6.724;2023-04-03T04:35:06;7.85;;;4.88;;
74793;SDS011;63320;50.768;6.724;2023-04-03T04:37:32;9.65;;;4.65;;
74793;SDS011;63320;50.768;6.724;2023-04-03T04:39:59;8.30;;;4.75;;
74793;SDS011;63320;50.768;6.724;2023-04-03T04:42:24;10.25;;;6.10;;
74793;SDS011;63320;50.768;6.724;2023-04-03T04:44:50;8.95;;;5.07;;
74793;SDS011;63320;50.768;6.724;2023-04-03T04:47:15;8.80;;;5.53;;
74793;SDS011;63320;50.768;6.724;2023-04-03T04:49:41;8.32;;;5.55;;
74793;SDS011;63320;50.768;6.724;2023-04-03T04:52:06;9.65;;;5.28;;
74793;SDS011;63320;50.768;6.724;2023-04-03T04:54:32;8.43;;;5.30;;
74793;SDS011;63320;50.768;6.724;2023-04-03T04:56:58;10.00;;;5.55;;
74793;SDS011;63320;50.768;6.724;2023-04-03T04:59:24;9.63;;;5.10;;
74793;SDS011;63320;50.768;6.724;2023-04-03T05:01:49;9.90;;;5.25;;
74793;SDS011;63320;50.768;6.724;2023-04-03T05:04:14;9.82;;;4.25;;
74793;SDS011;63320;50.768;6.724;2023-04-03T05:06:40;7.90;;;4.65;;
74793;SDS011;63320;50.768;6.724;2023-04-03T05:09:06;9.30;;;4.95;;
74793;SDS011;63320;50.768;6.724;2023-04-03T05:11:31;7.60;;;4.57;;
74793;SDS011;63320;50.768;6.724;2023-04-03T05:13:58;10.80;;;4.70;;
74793;SDS011;63320;50.768;6.724;2023-04-03T05:16:23;8.23;;;4.72;;
74793;SDS011;63320;50.768;6.724;2023-04-03T05:18:49;8.43;;;4.32;;
74793;SDS011;63320;50.768;6.724;2023-04-03T05:21:14;7.53;;;4.57;;
74793;SDS011;63320;50.768;6.724;2023-04-03T05:23:39;7.95;;;4.57;;
74793;SDS011;63320;50.768;6.724;2023-04-03T05:26:05;7.65;;;4.70;;
74793;SDS011;63320;50.768;6.724;2023-04-03T05:28:30;7.50;;;4.18;;
74793;SDS011;63320;50.768;6.724;2023-04-03T05:30:57;6.80;;;4.07;;
74793;SDS011;63320;50.768;6.724;2023-04-03T05:33:24;9.23;;;5.00;;
74793;SDS011;63320;50.768;6.724;2023-04-03T05:35:50;8.32;;;4.28;;
74793;SDS011;63320;50.768;6.724;2023-04-03T05:38:15;8.40;;;4.40;;
74793;SDS011;63320;50.768;6.724;2023-04-03T05:40:40;8.48;;;3.97;;
74793;SDS011;63320;50.768;6.724;2023-04-03T05:43:06;10.05;;;4.30;;
74793;SDS011;63320;50.768;6.724;2023-04-03T05:45:31;7.20;;;3.47;;
74793;SDS011;63320;50.768;6.724;2023-04-03T05:47:58;6.25;;;3.10;;
74793;SDS011;63320;50.768;6.724;2023-04-03T05:50:23;7.38;;;3.10;;
74793;SDS011;63320;50.768;6.724;2023-04-03T05:52:49;5.70;;;3.10;;
74793;SDS011;63320;50.768;6.724;2023-04-03T05:55:17;7.82;;;3.20;;
74793;SDS011;63320;50.768;6.724;2023-04-03T05:57:42;6.13;;;2.97;;
74793;SDS011;63320;50.768;6.724;2023-04-03T06:00:08;6.88;;;3.25;;
74793;SDS011;63320;50.768;6.724;2023-04-03T06:02:37;6.78;;;3.10;;
74793;SDS011;63320;50.768;6.724;2023-04-03T06:05:04;9.10;;;2.88;;
74793;SDS011;63320;50.768;6.724;2023-04-03T06:07:30;8.02;;;2.90;;
74793;SDS011;63320;50.768;6.724;2023-04-03T06:09:55;6.18;;;2.25;;
74793;SDS011;63320;50.768;6.724;2023-04-03T06:12:22;5.35;;;2.10;;
74793;SDS011;63320;50.768;6.724;2023-04-03T06:14:48;9.60;;;3.45;;
74793;SDS011;63320;50.768;6.724;2023-04-03T06:17:13;6.32;;;2.13;;
74793;SDS011;63320;50.768;6.724;2023-04-03T06:19:39;6.60;;;1.83;;
74793;SDS011;63320;50.768;6.724;2023-04-03T06:22:06;7.00;;;1.80;;
74793;SDS011;63320;50.768;6.724;2023-04-03T06:24:31;6.95;;;1.73;;
74793;SDS011;63320;50.768;6.724;2023-04-03T06:26:57;7.07;;;1.75;;
74793;SDS011;63320;50.768;6.724;2023-04-03T06:29:23;7.07;;;1.88;;
74793;SDS011;63320;50.768;6.724;2023-04-03T06:31:49;7.90;;;1.90;;
74793;SDS011;63320;50.768;6.724;2023-04-03T06:34:14;7.50;;;2.00;;
74793;SDS011;63320;50.768;6.724;2023-04-03T06:36:40;5.90;;;1.75;;
74793;SDS011;63320;50.768;6.724;2023-04-03T06:39:08;5.18;;;2.10;;
74793;SDS011;63320;50.768;6.724;2023-04-03T06:41:34;6.47;;;2.08;;
74793;SDS011;63320;50.768;6.724;2023-04-03T06:43:59;4.57;;;1.75;;
74793;SDS011;63320;50.768;6.724;2023-04-03T06:46:25;7.05;;;2.05;;
74793;SDS011;63320;50.768;6.724;2023-04-03T06:48:51;5.80;;;1.52;;
74793;SDS011;63320;50.768;6.724;2023-04-03T06:51:19;6.18;;;1.52;;
74793;SDS011;63320;50.768;6.724;2023-04-03T06:53:46;3.53;;;1.38;;
74793;SDS011;63320;50.768;6.724;2023-04-03T06:56:13;5.45;;;1.23;;
74793;SDS011;63320;50.768;6.724;2023-04-03T06:58:38;3.92;;;1.30;;
74793;SDS011;63320;50.768;6.724;2023-04-03T07:01:04;5.68;;;1.60;;
74793;SDS011;63320;50.768;6.724;2023-04-03T07:03:29;7.07;;;1.80;;
74793;SDS011;63320;50.768;6.724;2023-04-03T07:05:54;5.28;;;1.50;;
74793;SDS011;63320;50.768;6.724;2023-04-03T07:08:20;4.70;;;1.40;;
74793;SDS011;63320;50.768;6.724;2023-04-03T07:10:45;5.63;;;1.70;;
74793;SDS011;63320;50.768;6.724;2023-04-03T07:13:12;5.72;;;1.63;;
74793;SDS011;63320;50.768;6.724;2023-04-03T07:15:37;5.45;;;1.50;;
74793;SDS011;63320;50.768;6.724;2023-04-03T07:18:02;6.80;;;1.90;;
74793;SDS011;63320;50.768;6.724;2023-04-03T07:20:28;6.07;;;1.75;;
74793;SDS011;63320;50.768;6.724;2023-04-03T07:22:53;5.45;;;1.80;;
74793;SDS011;63320;50.768;6.724;2023-04-03T07:25:19;6.30;;;2.00;;
74793;SDS011;63320;50.768;6.724;2023-04-03T07:27:44;6.32;;;1.70;;
74793;SDS011;63320;50.768;6.724;2023-04-03T07:30:11;5.25;;;1.40;;
74793;SDS011;63320;50.768;6.724;2023-04-03T07:32:37;5.25;;;1.58;;
74793;SDS011;63320;50.768;6.724;2023-04-03T07:35:02;6.10;;;1.52;;
74793;SDS011;63320;50.768;6.724;2023-04-03T07:37:28;6.55;;;1.58;;
74793;SDS011;63320;50.768;6.724;2023-04-03T07:39:53;5.85;;;1.70;;
74793;SDS011;63320;50.768;6.724;2023-04-03T07:42:19;5.97;;;1.50;;
74793;SDS011;63320;50.768;6.724;2023-04-03T07:44:44;5.30;;;2.22;;
74793;SDS011;63320;50.768;6.724;2023-04-03T07:47:11;8.68;;;1.60;;
74793;SDS011;63320;50.768;6.724;2023-04-03T07:49:36;4.80;;;1.20;;
74793;SDS011;63320;50.768;6.724;2023-04-03T07:52:02;5.80;;;1.80;;
74793;SDS011;63320;50.768;6.724;2023-04-03T07:54:27;7.72;;;1.92;;
74793;SDS011;63320;50.768;6.724;2023-04-03T07:56:52;3.78;;;1.33;;
74793;SDS011;63320;50.768;6.724;2023-04-03T07:59:18;6.03;;;1.38;;
74793;SDS011;63320;50.768;6.724;2023-04-03T08:01:43;7.35;;;1.63;;
74793;SDS011;63320;50.768;6.724;2023-04-03T08:04:10;5.82;;;1.20;;
74793;SDS011;63320;50.768;6.724;2023-04-03T08:06:35;5.95;;;1.45;;
74793;SDS011;63320;50.768;6.724;2023-04-03T08:09:01;4.63;;;1.40;;
74793;SDS011;63320;50.768;6.724;2023-04-03T08:11:27;5.88;;;1.45;;
74793;SDS011;63320;50.768;6.724;2023-04-03T08:13:52;5.38;;;1.30;;
74793;SDS011;63320;50.768;6.724;2023-04-03T08:16:20;4.35;;;1.42;;
74793;SDS011;63320;50.768;6.724;2023-04-03T08:18:46;6.55;;;3.28;;
74793;SDS011;63320;50.768;6.724;2023-04-03T08:21:13;7.13;;;2.20;;
74793;SDS011;63320;50.768;6.724;2023-04-03T08:23:39;7.65;;;1.67;;
74793;SDS011;63320;50.768;6.724;2023-04-03T08:26:06;7.05;;;2.50;;
74793;SDS011;63320;50.768;6.724;2023-04-03T08:28:33;7.68;;;1.98;;
74793;SDS011;63320;50.768;6.724;2023-04-03T08:31:02;6.25;;;1.88;;
74793;SDS011;63320;50.768;6.724;2023-04-03T08:33:28;7.55;;;1.50;;
74793;SDS011;63320;50.768;6.724;2023-04-03T08:35:53;5.47;;;1.30;;
74793;SDS011;63320;50.768;6.724;2023-04-03T08:38:20;5.07;;;1.70;;
74793;SDS011;63320;50.768;6.724;2023-04-03T08:40:45;6.55;;;1.35;;
74793;SDS011;63320;50.768;6.724;2023-04-03T08:43:18;5.15;;;1.42;;
74793;SDS011;63320;50.768;6.724;2023-04-03T08:45:55;5.88;;;1.45;;
74793;SDS011;63320;50.768;6.724;2023-04-03T08:48:26;6.88;;;1.58;;
74793;SDS011;63320;50.768;6.724;2023-04-03T08:50:54;7.03;;;1.50;;
74793;SDS011;63320;50.768;6.724;2023-04-03T08:53:26;7.63;;;1.63;;
74793;SDS011;63320;50.768;6.724;2023-04-03T08:55:55;5.55;;;1.50;;
74793;SDS011;63320;50.768;6.724;2023-04-03T08:58:21;6.70;;;1.60;;
74793;SDS011;63320;50.768;6.724;2023-04-03T09:00:48;5.35;;;1.52;;
74793;SDS011;63320;50.768;6.724;2023-04-03T09:03:16;5.15;;;1.48;;
74793;SDS011;63320;50.768;6.724;2023-04-03T09:05:44;7.95;;;1.60;;
74793;SDS011;63320;50.768;6.724;2023-04-03T09:08:16;14.07;;;2.05;;
74793;SDS011;63320;50.768;6.724;2023-04-03T09:10:48;5.70;;;1.63;;
74793;SDS011;63320;50.768;6.724;2023-04-03T09:13:17;7.78;;;1.85;;
74793;SDS011;63320;50.768;6.724;2023-04-03T09:15:48;4.38;;;1.30;;
74793;SDS011;63320;50.768;6.724;2023-04-03T09:18:15;6.57;;;1.52;;
74793;SDS011;63320;50.768;6.724;2023-04-03T09:23:14;5.18;;;1.08;;
74793;SDS011;63320;50.768;6.724;2023-04-03T09:25:44;5.28;;;1.33;;
74793;SDS011;63320;50.768;6.724;2023-04-03T09:28:11;4.97;;;1.25;;
74793;SDS011;63320;50.768;6.724;2023-04-03T09:30:37;6.63;;;1.58;;
74793;SDS011;63320;50.768;6.724;2023-04-03T09:33:02;6.70;;;1.50;;
74793;SDS011;63320;50.768;6.724;2023-04-03T09:35:29;6.10;;;1.55;;
74793;SDS011;63320;50.768;6.724;2023-04-03T09:37:58;4.93;;;1.20;;
74793;SDS011;63320;50.768;6.724;2023-04-03T09:40:29;4.43;;;1.13;;
74793;SDS011;63320;50.768;6.724;2023-04-03T09:42:59;6.85;;;1.30;;
74793;SDS011;63320;50.768;6.724;2023-04-03T09:45:27;5.32;;;1.55;;
74793;SDS011;63320;50.768;6.724;2023-04-03T09:48:03;6.10;;;1.27;;
74793;SDS011;63320;50.768;6.724;2023-04-03T09:50:30;6.53;;;1.45;;
74793;SDS011;63320;50.768;6.724;2023-04-03T09:52:56;7.00;;;1.45;;
74793;SDS011;63320;50.768;6.724;2023-04-03T09:55:22;8.98;;;1.30;;
74793;SDS011;63320;50.768;6.724;2023-04-03T09:57:49;4.82;;;1.40;;
74793;SDS011;63320;50.768;6.724;2023-04-03T10:00:19;3.88;;;1.33;;
74793;SDS011;63320;50.768;6.724;2023-04-03T10:02:49;6.28;;;1.45;;
74793;SDS011;63320;50.768;6.724;2023-04-03T10:05:27;3.80;;;1.20;;
74793;SDS011;63320;50.768;6.724;2023-04-03T10:08:09;6.20;;;1.70;;
74793;SDS011;63320;50.768;6.724;2023-04-03T10:10:44;5.72;;;1.52;;
74793;SDS011;63320;50.768;6.724;2023-04-03T10:13:11;4.78;;;1.00;;
74793;SDS011;63320;50.768;6.724;2023-04-03T10:15:40;4.43;;;1.10;;
74793;SDS011;63320;50.768;6.724;2023-04-03T10:18:14;5.40;;;1.30;;
74793;SDS011;63320;50.768;6.724;2023-04-03T10:20:52;2.58;;;0.93;;
74793;SDS011;63320;50.768;6.724;2023-04-03T10:23:23;4.03;;;0.95;;
74793;SDS011;63320;50.768;6.724;2023-04-03T10:25:56;4.90;;;1.10;;
74793;SDS011;63320;50.768;6.724;2023-04-03T10:28:33;4.22;;;1.10;;
74793;SDS011;63320;50.768;6.724;2023-04-03T10:31:06;6.72;;;1.40;;
74793;SDS011;63320;50.768;6.724;2023-04-03T10:33:46;5.65;;;1.50;;
74793;SDS011;63320;50.768;6.724;2023-04-03T10:36:20;6.25;;;0.93;;
74793;SDS011;63320;50.768;6.724;2023-04-03T10:38:56;6.88;;;1.13;;
74793;SDS011;63320;50.768;6.724;2023-04-03T10:41:28;5.30;;;1.20;;
74793;SDS011;63320;50.768;6.724;2023-04-03T10:44:08;4.68;;;1.25;;
74793;SDS011;63320;50.768;6.724;2023-04-03T10:46:40;6.32;;;1.50;;
74793;SDS011;63320;50.768;6.724;2023-04-03T10:54:12;3.83;;;0.93;;
74793;SDS011;63320;50.768;6.724;2023-04-03T10:56:44;4.22;;;1.00;;
74793;SDS011;63320;50.768;6.724;2023-04-03T10:59:14;4.78;;;1.15;;
74793;SDS011;63320;50.768;6.724;2023-04-03T11:01:46;4.78;;;1.20;;
74793;SDS011;63320;50.768;6.724;2023-04-03T11:04:16;7.28;;;2.40;;
74793;SDS011;63320;50.768;6.724;2023-04-03T11:06:44;8.43;;;2.90;;
74793;SDS011;63320;50.768;6.724;2023-04-03T11:09:16;8.15;;;2.60;;
74793;SDS011;63320;50.768;6.724;2023-04-03T11:11:46;5.18;;;1.63;;
74793;SDS011;63320;50.768;6.724;2023-04-03T11:14:13;4.85;;;1.45;;
74793;SDS011;63320;50.768;6.724;2023-04-03T11:16:45;8.20;;;2.67;;
74793;SDS011;63320;50.768;6.724;2023-04-03T11:19:14;6.75;;;2.35;;
74793;SDS011;63320;50.768;6.724;2023-04-03T11:21:45;5.63;;;1.80;;
74793;SDS011;63320;50.768;6.724;2023-04-03T11:24:20;6.57;;;1.13;;
74793;SDS011;63320;50.768;6.724;2023-04-03T11:26:48;4.55;;;1.20;;
74793;SDS011;63320;50.768;6.724;2023-04-03T11:29:17;2.70;;;1.00;;
74793;SDS011;63320;50.768;6.724;2023-04-03T11:31:49;3.45;;;1.05;;
74793;SDS011;63320;50.768;6.724;2023-04-03T11:34:33;3.33;;;0.88;;
74793;SDS011;63320;50.768;6.724;2023-04-03T11:37:00;2.97;;;0.98;;
74793;SDS011;63320;50.768;6.724;2023-04-03T11:39:30;4.70;;;1.10;;
74793;SDS011;63320;50.768;6.724;2023-04-03T11:44:41;5.25;;;1.25;;
74793;SDS011;63320;50.768;6.724;2023-04-03T11:47:07;3.72;;;1.00;;
74793;SDS011;63320;50.768;6.724;2023-04-03T11:49:57;3.25;;;0.85;;
74793;SDS011;63320;50.768;6.724;2023-04-03T11:58:13;6.35;;;1.38;;
74793;SDS011;63320;50.768;6.724;2023-04-03T12:03:29;5.10;;;1.15;;
74793;SDS011;63320;50.768;6.724;2023-04-03T12:08:58;3.65;;;1.30;;
74793;SDS011;63320;50.768;6.724;2023-04-03T12:11:25;4.03;;;1.60;;
74793;SDS011;63320;50.768;6.724;2023-04-03T12:14:03;4.40;;;1.20;;
74793;SDS011;63320;50.768;6.724;2023-04-03T12:16:30;3.22;;;1.13;;
74793;SDS011;63320;50.768;6.724;2023-04-03T12:18:59;4.45;;;1.50;;
74793;SDS011;63320;50.768;6.724;2023-04-03T12:24:30;3.85;;;1.25;;
74793;SDS011;63320;50.768;6.724;2023-04-03T12:27:04;4.57;;;1.10;;
74793;SDS011;63320;50.768;6.724;2023-04-03T12:29:40;4.75;;;1.67;;
74793;SDS011;63320;50.768;6.724;2023-04-03T12:32:15;5.10;;;1.17;;
74793;SDS011;63320;50.768;6.724;2023-04-03T12:34:53;6.85;;;2.92;;
74793;SDS011;63320;50.768;6.724;2023-04-03T12:37:39;5.43;;;1.98;;
74793;SDS011;63320;50.768;6.724;2023-04-03T12:40:16;3.38;;;0.90;;
74793;SDS011;63320;50.768;6.724;2023-04-03T12:43:02;4.35;;;1.20;;
74793;SDS011;63320;50.768;6.724;2023-04-03T12:45:43;3.67;;;1.35;;
74793;SDS011;63320;50.768;6.724;2023-04-03T12:48:14;5.40;;;1.20;;
74793;SDS011;63320;50.768;6.724;2023-04-03T12:50:41;4.55;;;1.10;;
74793;SDS011;63320;50.768;6.724;2023-04-03T12:53:11;4.30;;;0.93;;
74793;SDS011;63320;50.768;6.724;2023-04-03T12:58:14;4.13;;;0.90;;
74793;SDS011;63320;50.768;6.724;2023-04-03T13:00:41;4.32;;;1.10;;
74793;SDS011;63320;50.768;6.724;2023-04-03T13:03:07;3.55;;;1.10;;
74793;SDS011;63320;50.768;6.724;2023-04-03T13:05:47;3.42;;;0.90;;
74793;SDS011;63320;50.768;6.724;2023-04-03T13:08:12;4.65;;;1.10;;
74793;SDS011;63320;50.768;6.724;2023-04-03T13:10:49;4.03;;;0.88;;
74793;SDS011;63320;50.768;6.724;2023-04-03T13:13:19;4.25;;;0.90;;
74793;SDS011;63320;50.768;6.724;2023-04-03T13:15:45;3.78;;;0.90;;
74793;SDS011;63320;50.768;6.724;2023-04-03T13:18:21;4.30;;;0.98;;
74793;SDS011;63320;50.768;6.724;2023-04-03T13:20:48;4.30;;;1.20;;
74793;SDS011;63320;50.768;6.724;2023-04-03T13:23:14;3.38;;;0.98;;
74793;SDS011;63320;50.768;6.724;2023-04-03T13:25:42;4.53;;;1.05;;
74793;SDS011;63320;50.768;6.724;2023-04-03T13:28:11;3.63;;;0.85;;
74793;SDS011;63320;50.768;6.724;2023-04-03T13:33:17;2.60;;;0.93;;
74793;SDS011;63320;50.768;6.724;2023-04-03T13:35:44;4.00;;;0.85;;
74793;SDS011;63320;50.768;6.724;2023-04-03T13:38:21;3.50;;;0.90;;
74793;SDS011;63320;50.768;6.724;2023-04-03T13:40:49;3.85;;;1.15;;
74793;SDS011;63320;50.768;6.724;2023-04-03T13:43:18;5.07;;;1.05;;
74793;SDS011;63320;50.768;6.724;2023-04-03T13:45:53;4.70;;;1.00;;
74793;SDS011;63320;50.768;6.724;2023-04-03T13:48:21;5.15;;;1.08;;
74793;SDS011;63320;50.768;6.724;2023-04-03T13:50:51;6.35;;;1.50;;
74793;SDS011;63320;50.768;6.724;2023-04-03T13:53:19;3.17;;;1.20;;
74793;SDS011;63320;50.768;6.724;2023-04-03T13:55:55;6.55;;;1.60;;
74793;SDS011;63320;50.768;6.724;2023-04-03T13:58:30;7.43;;;1.88;;
74793;SDS011;63320;50.768;6.724;2023-04-03T14:01:00;9.40;;;3.78;;
74793;SDS011;63320;50.768;6.724;2023-04-03T14:03:38;11.18;;;3.90;;
74793;SDS011;63320;50.768;6.724;2023-04-03T14:06:08;10.25;;;4.30;;
74793;SDS011;63320;50.768;6.724;2023-04-03T14:08:36;9.13;;;2.72;;
74793;SDS011;63320;50.768;6.724;2023-04-03T14:11:01;5.93;;;1.60;;
74793;SDS011;63320;50.768;6.724;2023-04-03T14:13:29;16.52;;;8.27;;
74793;SDS011;63320;50.768;6.724;2023-04-03T14:15:56;12.73;;;4.97;;
74793;SDS011;63320;50.768;6.724;2023-04-03T14:18:22;7.28;;;2.67;;
74793;SDS011;63320;50.768;6.724;2023-04-03T14:20:48;6.25;;;2.33;;
74793;SDS011;63320;50.768;6.724;2023-04-03T14:23:13;10.82;;;4.28;;
74793;SDS011;63320;50.768;6.724;2023-04-03T14:25:39;13.25;;;3.72;;
74793;SDS011;63320;50.768;6.724;2023-04-03T14:28:11;10.82;;;4.93;;
74793;SDS011;63320;50.768;6.724;2023-04-03T14:30:41;16.10;;;7.38;;
74793;SDS011;63320;50.768;6.724;2023-04-03T14:33:09;23.40;;;9.88;;
74793;SDS011;63320;50.768;6.724;2023-04-03T14:35:37;21.58;;;9.30;;
74793;SDS011;63320;50.768;6.724;2023-04-03T14:38:05;10.10;;;5.00;;
74793;SDS011;63320;50.768;6.724;2023-04-03T14:40:36;4.72;;;1.70;;
74793;SDS011;63320;50.768;6.724;2023-04-03T14:43:01;4.47;;;1.15;;
74793;SDS011;63320;50.768;6.724;2023-04-03T14:45:26;6.50;;;1.20;;
74793;SDS011;63320;50.768;6.724;2023-04-03T14:47:54;5.75;;;1.40;;
74793;SDS011;63320;50.768;6.724;2023-04-03T14:50:21;4.78;;;0.98;;
74793;SDS011;63320;50.768;6.724;2023-04-03T14:52:48;5.15;;;1.20;;
74793;SDS011;63320;50.768;6.724;2023-04-03T14:55:15;5.18;;;1.40;;
74793;SDS011;63320;50.768;6.724;2023-04-03T14:57:41;5.05;;;1.27;;
74793;SDS011;63320;50.768;6.724;2023-04-03T15:00:10;4.18;;;1.35;;
74793;SDS011;63320;50.768;6.724;2023-04-03T15:02:38;4.97;;;1.17;;
74793;SDS011;63320;50.768;6.724;2023-04-03T15:05:06;4.70;;;1.15;;
74793;SDS011;63320;50.768;6.724;2023-04-03T15:07:34;9.90;;;1.50;;
74793;SDS011;63320;50.768;6.724;2023-04-03T15:10:02;9.75;;;1.42;;
74793;SDS011;63320;50.768;6.724;2023-04-03T15:12:38;5.68;;;1.50;;
74793;SDS011;63320;50.768;6.724;2023-04-03T15:15:04;6.72;;;1.98;;
74793;SDS011;63320;50.768;6.724;2023-04-03T15:17:30;8.52;;;2.70;;
74793;SDS011;63320;50.768;6.724;2023-04-03T15:19:55;7.68;;;2.15;;
74793;SDS011;63320;50.768;6.724;2023-04-03T15:22:22;15.75;;;4.10;;
74793;SDS011;63320;50.768;6.724;2023-04-03T15:24:47;8.88;;;1.65;;